Beaver Dams, New York
Current Conditions -  °F | °C
As of 3:53 AM on Thursday 23 Oct 2014 (Local Time) from KELM Reporting Station
Overcast Overcast  
Wind Chill: 42°   Ceiling: 3700
Heat Index: 48°   Visibility: 10mi
Dew Point: 41°   Wind: 15mph
Humidity: 77%   Direction: 360°N
Pressure: 29.99"   Gusts: 22mph
Location:  42.29°N, 76.96°W
Report Text: KELM 230753Z AUTO 36013G19KT 10SM FEW021 OVC037 09/05 A2999 RMK AO2 SLP159 T00890050 $
Loading
Personal Weather Stations






























Interactive Weather Map
Tropical Storm Tracking
New forecast layout! Learn more

10-Day Weather Forecast

Advertisements
Track Severe Weather on mobile